createdAt,value
2023-09-23T00:02:19.622Z,6.63
2023-09-23T00:05:22.515Z,6.07
2023-09-23T00:08:25.069Z,6.65
2023-09-23T00:11:27.489Z,6.50
2023-09-23T00:14:30.021Z,7.47
2023-09-23T00:17:33.497Z,7.40
2023-09-23T00:20:37.758Z,6.63
2023-09-23T00:23:41.219Z,7.20
2023-09-23T00:26:44.935Z,6.70
2023-09-23T00:29:47.355Z,7.65
2023-09-23T00:32:50.562Z,7.60
2023-09-23T00:35:53.080Z,7.43
2023-09-23T00:38:57.242Z,7.47
2023-09-23T00:42:00.164Z,6.80
2023-09-23T00:45:02.612Z,8.30
2023-09-23T00:48:09.620Z,7.47
2023-09-23T00:51:13.148Z,7.45
2023-09-23T00:54:19.090Z,7.45
2023-09-23T00:57:22.553Z,7.75
2023-09-23T01:00:32.104Z,6.63
2023-09-23T01:03:34.855Z,7.27
2023-09-23T01:06:37.518Z,7.45
2023-09-23T01:09:40.958Z,7.65
2023-09-23T01:12:45.245Z,7.18
2023-09-23T01:15:48.108Z,7.47
2023-09-23T01:18:51.209Z,7.50
2023-09-23T01:21:57.044Z,8.23
2023-09-23T01:24:59.983Z,8.80
2023-09-23T01:28:05.015Z,8.70
2023-09-23T01:31:08.004Z,7.55
2023-09-23T01:34:11.459Z,6.93
2023-09-23T01:37:13.911Z,7.53
2023-09-23T01:40:19.099Z,6.82
2023-09-23T01:43:22.641Z,7.78
2023-09-23T01:46:26.201Z,7.80
2023-09-23T01:49:28.731Z,7.80
2023-09-23T01:52:31.259Z,8.07
2023-09-23T01:55:33.806Z,8.65
2023-09-23T01:58:37.630Z,7.70
2023-09-23T02:01:45.266Z,7.32
2023-09-23T02:04:49.045Z,8.07
2023-09-23T02:07:51.841Z,7.35
2023-09-23T02:10:54.545Z,7.50
2023-09-23T02:13:57.395Z,7.65
2023-09-23T02:17:00.053Z,7.68
2023-09-23T02:20:04.971Z,7.13
2023-09-23T02:23:07.905Z,7.55
2023-09-23T02:26:11.025Z,7.00
2023-09-23T02:29:15.607Z,6.25
2023-09-23T02:32:19.900Z,7.03
2023-09-23T02:35:23.486Z,7.43
2023-09-23T02:38:26.108Z,6.95
2023-09-23T02:41:29.757Z,7.07
2023-09-23T02:44:32.160Z,7.47
2023-09-23T02:47:34.711Z,7.30
2023-09-23T02:50:38.303Z,7.40
2023-09-23T02:53:40.741Z,7.75
2023-09-23T02:56:43.180Z,6.95
2023-09-23T02:59:48.126Z,8.30
2023-09-23T03:02:56.565Z,8.05
2023-09-23T03:06:03.894Z,7.57
2023-09-23T03:09:09.795Z,7.25
2023-09-23T03:12:13.234Z,8.13
2023-09-23T03:15:16.088Z,8.13
2023-09-23T03:18:35.360Z,7.82
2023-09-23T03:21:46.817Z,7.20
2023-09-23T03:24:50.186Z,8.52
2023-09-23T03:27:53.939Z,7.50
2023-09-23T03:31:01.290Z,7.35
2023-09-23T03:34:04.889Z,7.10
2023-09-23T03:37:10.850Z,7.47
2023-09-23T03:40:20.716Z,7.88
2023-09-23T03:43:23.566Z,7.90
2023-09-23T03:46:26.116Z,7.03
2023-09-23T03:49:29.645Z,6.78
2023-09-23T03:52:33.991Z,6.67
2023-09-23T03:55:36.427Z,7.47
2023-09-23T03:58:39.949Z,7.30
2023-09-23T04:01:42.776Z,6.40
2023-09-23T04:04:50.171Z,7.22
2023-09-23T04:07:52.833Z,6.57
2023-09-23T04:10:55.325Z,7.03
2023-09-23T04:13:58.128Z,7.00
2023-09-23T04:17:00.655Z,6.72
2023-09-23T04:20:05.998Z,7.38
2023-09-23T04:23:08.742Z,6.77
2023-09-23T04:26:14.251Z,7.05
2023-09-23T04:29:21.099Z,7.10
2023-09-23T04:32:24.186Z,7.28
2023-09-23T04:35:26.693Z,10.40
2023-09-23T04:38:29.248Z,7.03
2023-09-23T04:41:31.727Z,7.47
2023-09-23T04:44:35.267Z,6.70
2023-09-23T04:47:38.858Z,6.93
2023-09-23T04:50:42.997Z,6.65
2023-09-23T04:53:45.488Z,7.00
2023-09-23T04:56:48.964Z,7.10
2023-09-23T04:59:55.852Z,7.38
2023-09-23T05:02:58.491Z,7.68
2023-09-23T05:06:02.117Z,7.53
2023-09-23T05:09:04.802Z,6.77
2023-09-23T05:12:09.347Z,6.90
2023-09-23T05:15:16.473Z,7.80
2023-09-23T05:18:19.199Z,6.47
2023-09-23T05:21:21.660Z,8.02
2023-09-23T05:24:27.940Z,7.00
2023-09-23T05:27:31.131Z,9.30
2023-09-23T05:30:33.608Z,8.43
2023-09-23T05:33:36.972Z,7.95
2023-09-23T05:36:39.455Z,7.53
2023-09-23T05:39:47.121Z,8.03
2023-09-23T05:42:53.262Z,7.75
2023-09-23T05:45:55.854Z,7.30
2023-09-23T05:48:58.679Z,8.82
2023-09-23T05:52:01.105Z,7.50
2023-09-23T05:55:08.064Z,7.90
2023-09-23T05:58:11.195Z,8.00
2023-09-23T06:01:14.410Z,8.55
2023-09-23T06:04:17.127Z,8.23
2023-09-23T06:07:20.099Z,8.02
2023-09-23T06:10:22.618Z,8.30
2023-09-23T06:13:25.065Z,9.13
2023-09-23T06:16:27.870Z,8.27
2023-09-23T06:19:34.026Z,8.77
2023-09-23T06:22:36.879Z,9.35
2023-09-23T06:25:39.556Z,9.07
2023-09-23T06:28:42.061Z,9.60
2023-09-23T06:31:44.536Z,8.95
2023-09-23T06:34:47.000Z,8.75
2023-09-23T06:37:49.547Z,9.10
2023-09-23T06:40:56.954Z,8.33
2023-09-23T06:43:59.489Z,9.05
2023-09-23T06:47:03.596Z,9.10
2023-09-23T06:50:06.604Z,9.38
2023-09-23T06:53:09.075Z,9.23
2023-09-23T06:56:11.592Z,9.20
2023-09-23T06:59:14.268Z,9.82
2023-09-23T07:02:16.846Z,11.77
2023-09-23T07:05:19.386Z,10.55
2023-09-23T07:08:21.937Z,13.73
2023-09-23T07:11:25.025Z,9.87
2023-09-23T07:14:27.665Z,9.57
2023-09-23T07:17:30.292Z,8.50
2023-09-23T07:20:33.687Z,9.52
2023-09-23T07:23:36.743Z,9.32
2023-09-23T07:26:39.591Z,9.63
2023-09-23T07:29:42.105Z,9.27
2023-09-23T07:32:44.936Z,9.65
2023-09-23T07:35:47.328Z,8.75
2023-09-23T07:38:49.763Z,8.45
2023-09-23T07:41:52.259Z,8.63
2023-09-23T07:44:55.366Z,9.02
2023-09-23T07:47:57.908Z,8.88
2023-09-23T07:51:01.610Z,9.13
2023-09-23T07:54:04.187Z,9.40
2023-09-23T07:57:06.721Z,8.93
2023-09-23T08:00:12.510Z,9.48
2023-09-23T08:03:15.071Z,8.90
2023-09-23T08:06:17.702Z,9.70
2023-09-23T08:09:20.147Z,8.65
2023-09-23T08:12:22.655Z,8.70
2023-09-23T08:15:25.090Z,8.65
2023-09-23T08:18:27.678Z,8.10
2023-09-23T08:21:30.816Z,8.73
2023-09-23T08:24:33.639Z,8.32
2023-09-23T08:27:36.035Z,8.03
2023-09-23T08:30:38.610Z,8.60
2023-09-23T08:33:41.074Z,8.30
2023-09-23T08:36:43.550Z,8.00
2023-09-23T08:39:47.229Z,7.88
2023-09-23T08:42:55.689Z,7.20
2023-09-23T08:45:58.807Z,7.40
2023-09-23T08:49:01.549Z,7.75
2023-09-23T08:52:05.428Z,7.20
2023-09-23T08:55:08.880Z,8.02
2023-09-23T08:58:11.415Z,6.67
2023-09-23T09:01:13.858Z,5.40
2023-09-23T09:04:16.460Z,5.70
2023-09-23T09:07:18.974Z,5.40
2023-09-23T09:10:21.631Z,4.40
2023-09-23T09:13:24.126Z,3.50
2023-09-23T09:16:29.214Z,4.10
2023-09-23T09:19:31.631Z,5.40
2023-09-23T09:22:34.036Z,4.55
2023-09-23T09:25:36.440Z,4.30
2023-09-23T09:28:38.989Z,4.10
2023-09-23T09:31:43.406Z,4.90
2023-09-23T09:34:47.712Z,4.45
2023-09-23T09:37:55.495Z,4.63
2023-09-23T09:41:05.163Z,5.18
2023-09-23T09:44:08.673Z,4.70
2023-09-23T09:47:12.236Z,4.55
2023-09-23T09:50:15.761Z,3.78
2023-09-23T09:53:19.743Z,3.65
2023-09-23T09:56:22.575Z,2.95
2023-09-23T09:59:30.608Z,2.87
2023-09-23T10:02:33.485Z,2.78
2023-09-23T10:05:47.292Z,2.60
2023-09-23T10:08:50.714Z,2.65
2023-09-23T10:11:55.088Z,3.05
2023-09-23T10:14:58.181Z,3.47
2023-09-23T10:18:03.297Z,3.30
2023-09-23T10:21:05.875Z,2.63
2023-09-23T10:24:09.562Z,2.28
2023-09-23T10:27:12.486Z,2.97
2023-09-23T10:30:23.394Z,2.10
2023-09-23T10:33:27.551Z,2.30
2023-09-23T10:36:30.598Z,2.90
2023-09-23T10:39:33.621Z,2.60
2023-09-23T10:42:36.581Z,3.15
2023-09-23T10:45:39.228Z,2.90
2023-09-23T10:48:41.842Z,2.65
2023-09-23T10:51:44.317Z,2.03
2023-09-23T10:54:49.000Z,2.08
2023-09-23T10:57:52.199Z,2.50
2023-09-23T11:00:56.830Z,2.00
2023-09-23T11:03:59.339Z,2.05
2023-09-23T11:07:02.130Z,2.70
2023-09-23T11:10:04.943Z,2.45
2023-09-23T11:13:10.095Z,3.05
2023-09-23T11:16:12.651Z,2.40
2023-09-23T11:19:18.531Z,2.25
2023-09-23T11:22:28.011Z,2.90
2023-09-23T11:25:44.745Z,12.38
2023-09-23T11:28:47.451Z,3.67
2023-09-23T11:31:50.010Z,1.80
2023-09-23T11:34:53.318Z,1.65
2023-09-23T11:37:57.187Z,1.80
2023-09-23T11:41:00.535Z,2.10
2023-09-23T11:44:03.047Z,1.65
2023-09-23T11:47:06.033Z,1.63
2023-09-23T11:50:09.162Z,1.90
2023-09-23T11:53:13.019Z,1.70
2023-09-23T11:56:16.763Z,1.45
2023-09-23T11:59:22.422Z,1.40
2023-09-23T12:02:25.253Z,1.73
2023-09-23T12:05:31.224Z,1.45
2023-09-23T12:08:34.084Z,1.63
2023-09-23T12:11:37.425Z,1.45
2023-09-23T12:14:43.988Z,1.50
2023-09-23T12:17:46.606Z,1.67
2023-09-23T12:20:49.518Z,1.40
2023-09-23T12:23:59.526Z,1.33
2023-09-23T12:27:02.722Z,1.50
2023-09-23T12:30:05.883Z,1.33
2023-09-23T12:33:09.557Z,1.60
2023-09-23T12:36:13.238Z,1.60
2023-09-23T12:39:17.328Z,1.50
2023-09-23T12:42:19.824Z,1.65
2023-09-23T12:45:23.610Z,2.00
2023-09-23T12:48:27.017Z,1.97
2023-09-23T12:51:29.618Z,2.00
2023-09-23T12:54:32.139Z,1.85
2023-09-23T12:57:35.102Z,1.73
2023-09-23T13:00:37.645Z,1.80
2023-09-23T13:03:40.889Z,2.20
2023-09-23T13:06:43.575Z,2.17
2023-09-23T13:09:46.006Z,2.08
2023-09-23T13:12:49.003Z,2.28
2023-09-23T13:15:52.247Z,1.75
2023-09-23T13:18:55.098Z,1.67
2023-09-23T13:21:57.602Z,2.70
2023-09-23T13:25:00.287Z,3.08
2023-09-23T13:28:02.687Z,2.50
2023-09-23T13:31:05.697Z,2.13
2023-09-23T13:34:09.151Z,2.93
2023-09-23T13:37:12.095Z,1.23
2023-09-23T13:40:14.575Z,1.90
2023-09-23T13:43:17.117Z,1.27
2023-09-23T13:46:19.682Z,1.67
2023-09-23T13:49:22.253Z,1.57
2023-09-23T13:52:24.670Z,1.10
2023-09-23T13:55:27.675Z,1.20
2023-09-23T13:58:30.191Z,2.17
2023-09-23T14:01:34.253Z,1.50
2023-09-23T14:04:36.817Z,1.50
2023-09-23T14:07:39.707Z,1.50
2023-09-23T14:10:42.155Z,1.70
2023-09-23T14:13:45.509Z,1.70
2023-09-23T14:16:49.127Z,1.55
2023-09-23T14:19:51.595Z,1.50
2023-09-23T14:22:54.457Z,1.23
2023-09-23T14:25:57.002Z,1.20
2023-09-23T14:28:59.478Z,1.50
2023-09-23T14:32:01.910Z,1.88
2023-09-23T14:35:04.774Z,2.00
2023-09-23T14:38:07.325Z,0.98
2023-09-23T14:41:10.002Z,1.15
2023-09-23T14:44:13.281Z,1.13
2023-09-23T14:47:15.837Z,1.35
2023-09-23T14:50:18.535Z,1.50
2023-09-23T14:53:21.580Z,1.42
2023-09-23T14:56:24.121Z,1.33
2023-09-23T14:59:26.923Z,1.35
2023-09-23T15:02:29.633Z,1.33
2023-09-23T15:05:32.506Z,1.83
2023-09-23T15:08:49.708Z,1.27
2023-09-23T15:11:56.546Z,1.40
2023-09-23T15:14:59.011Z,1.88
2023-09-23T15:18:01.597Z,1.60
2023-09-23T15:21:06.269Z,1.73
2023-09-23T15:24:08.822Z,1.80
2023-09-23T15:27:15.617Z,1.65
2023-09-23T15:30:18.073Z,1.50
2023-09-23T15:33:21.131Z,2.40
2023-09-23T15:36:23.744Z,1.70
2023-09-23T15:39:26.192Z,1.25
2023-09-23T15:42:31.604Z,1.80
2023-09-23T15:45:34.684Z,1.77
2023-09-23T15:48:37.232Z,1.20
2023-09-23T15:51:39.772Z,1.53
2023-09-23T15:54:42.253Z,1.45
2023-09-23T15:57:44.737Z,1.60
2023-09-23T16:00:47.876Z,1.58
2023-09-23T16:03:50.577Z,1.60
2023-09-23T16:06:53.167Z,1.40
2023-09-23T16:09:55.667Z,1.75
2023-09-23T16:12:58.605Z,1.98
2023-09-23T16:16:01.371Z,2.33
2023-09-23T16:19:04.044Z,2.00
2023-09-23T16:22:06.567Z,2.53
2023-09-23T16:25:09.303Z,2.40
2023-09-23T16:28:11.814Z,1.95
2023-09-23T16:31:14.316Z,1.73
2023-09-23T16:34:16.797Z,1.58
2023-09-23T16:37:19.917Z,1.57
2023-09-23T16:40:22.821Z,1.98
2023-09-23T16:43:27.078Z,2.08
2023-09-23T16:46:30.375Z,1.90
2023-09-23T16:49:32.921Z,2.55
2023-09-23T16:52:35.462Z,2.00
2023-09-23T16:55:38.428Z,1.38
2023-09-23T16:58:40.877Z,1.98
2023-09-23T17:01:43.387Z,1.95
2023-09-23T17:04:46.780Z,1.75
2023-09-23T17:07:49.498Z,1.83
2023-09-23T17:10:52.188Z,2.65
2023-09-23T17:13:54.843Z,3.55
2023-09-23T17:16:57.307Z,2.70
2023-09-23T17:19:59.847Z,3.22
2023-09-23T17:23:02.639Z,3.13
2023-09-23T17:26:06.496Z,3.80
2023-09-23T17:29:09.427Z,4.20
2023-09-23T17:32:12.272Z,2.55
2023-09-23T17:35:15.317Z,2.20
2023-09-23T17:38:18.936Z,1.80
2023-09-23T17:41:21.530Z,3.10
2023-09-23T17:44:24.033Z,2.17
2023-09-23T17:47:26.816Z,2.80
2023-09-23T17:50:29.504Z,2.58
2023-09-23T17:53:33.306Z,2.07
2023-09-23T17:56:36.118Z,2.22
2023-09-23T17:59:39.657Z,2.30
2023-09-23T18:02:42.508Z,2.20
2023-09-23T18:05:45.397Z,2.50
2023-09-23T18:08:47.991Z,2.27
2023-09-23T18:11:52.380Z,2.13
2023-09-23T18:14:55.023Z,1.90
2023-09-23T18:17:57.663Z,2.50
2023-09-23T18:21:00.393Z,2.90
2023-09-23T18:24:03.834Z,2.90
2023-09-23T18:27:06.503Z,2.63
2023-09-23T18:30:09.450Z,2.25
2023-09-23T18:33:12.209Z,2.22
2023-09-23T18:36:15.118Z,1.92
2023-09-23T18:39:18.030Z,2.20
2023-09-23T18:42:20.636Z,2.20
2023-09-23T18:45:23.406Z,2.10
2023-09-23T18:48:29.882Z,1.88
2023-09-23T18:51:35.816Z,3.13
2023-09-23T18:54:38.338Z,2.17
2023-09-23T18:57:41.106Z,1.92
2023-09-23T19:00:44.636Z,2.17
2023-09-23T19:03:47.772Z,2.53
2023-09-23T19:06:51.711Z,2.08
2023-09-23T19:09:56.440Z,2.47
2023-09-23T19:12:58.852Z,2.28
2023-09-23T19:16:01.348Z,2.13
2023-09-23T19:19:04.171Z,2.65
2023-09-23T19:22:06.918Z,2.90
2023-09-23T19:25:09.901Z,2.70
2023-09-23T19:28:12.575Z,2.83
2023-09-23T19:31:17.136Z,3.72
2023-09-23T19:34:27.047Z,2.53
2023-09-23T19:37:29.847Z,2.85
2023-09-23T19:40:32.355Z,2.80
2023-09-23T19:43:37.892Z,2.65
2023-09-23T19:46:41.288Z,2.90
2023-09-23T19:49:44.485Z,3.10
2023-09-23T19:52:47.717Z,2.60
2023-09-23T19:55:50.762Z,2.30
2023-09-23T19:58:53.277Z,2.53
2023-09-23T20:01:55.733Z,2.70
2023-09-23T20:04:58.524Z,3.17
2023-09-23T20:08:01.466Z,2.97
2023-09-23T20:11:05.467Z,2.20
2023-09-23T20:14:08.721Z,2.42
2023-09-23T20:17:14.725Z,2.28
2023-09-23T20:20:17.591Z,2.65
2023-09-23T20:23:25.745Z,2.60
2023-09-23T20:26:30.763Z,2.77
2023-09-23T20:29:33.492Z,2.67
2023-09-23T20:32:39.786Z,3.38
2023-09-23T20:35:43.353Z,4.10
2023-09-23T20:38:46.285Z,3.60
2023-09-23T20:41:49.296Z,4.27
2023-09-23T20:44:51.801Z,4.35
2023-09-23T20:47:54.378Z,4.05
2023-09-23T20:50:57.155Z,4.93
2023-09-23T20:53:59.915Z,5.35
2023-09-23T20:57:02.489Z,5.03
2023-09-23T21:00:15.013Z,5.03
2023-09-23T21:03:17.692Z,5.32
2023-09-23T21:06:20.353Z,5.55
2023-09-23T21:09:22.878Z,5.78
2023-09-23T21:12:25.290Z,5.50
2023-09-23T21:15:27.816Z,6.30
2023-09-23T21:18:30.464Z,6.78
2023-09-23T21:21:32.963Z,6.32
2023-09-23T21:24:35.427Z,7.10
2023-09-23T21:27:37.983Z,7.10
2023-09-23T21:30:40.516Z,7.53
2023-09-23T21:33:43.494Z,7.32
2023-09-23T21:36:46.594Z,6.45
2023-09-23T21:39:49.164Z,7.20
2023-09-23T21:42:52.126Z,6.60
2023-09-23T21:45:56.290Z,6.57
2023-09-23T21:49:01.523Z,6.75
2023-09-23T21:52:04.208Z,6.38
2023-09-23T21:55:07.181Z,6.30
2023-09-23T21:58:09.590Z,7.20
2023-09-23T22:01:12.143Z,6.88
2023-09-23T22:04:15.429Z,6.43
2023-09-23T22:07:18.229Z,6.65
2023-09-23T22:10:20.697Z,6.70
2023-09-23T22:13:23.231Z,6.50
2023-09-23T22:16:25.713Z,6.70
2023-09-23T22:19:29.507Z,6.40
2023-09-23T22:22:32.799Z,5.85
2023-09-23T22:25:35.380Z,6.15
2023-09-23T22:28:39.159Z,5.53
2023-09-23T22:31:41.531Z,6.00
2023-09-23T22:34:44.387Z,6.72
2023-09-23T22:37:46.802Z,5.90
2023-09-23T22:40:50.982Z,5.68
2023-09-23T22:43:53.570Z,5.93
2023-09-23T22:46:56.112Z,5.13
2023-09-23T22:49:58.568Z,5.25
2023-09-23T22:53:01.113Z,5.38
2023-09-23T22:56:07.850Z,4.82
2023-09-23T22:59:11.822Z,5.30
2023-09-23T23:02:14.786Z,5.82
2023-09-23T23:05:17.606Z,6.13
2023-09-23T23:08:20.175Z,5.82
2023-09-23T23:11:22.751Z,5.50
2023-09-23T23:14:25.368Z,5.90
2023-09-23T23:17:30.627Z,6.63
2023-09-23T23:20:35.925Z,7.05
2023-09-23T23:23:38.622Z,7.82
2023-09-23T23:26:41.217Z,6.55
2023-09-23T23:29:43.805Z,7.13
2023-09-23T23:32:50.635Z,6.43
2023-09-23T23:36:00.406Z,5.90
2023-09-23T23:39:06.880Z,5.50
2023-09-23T23:42:11.343Z,5.35
2023-09-23T23:45:13.984Z,5.93
2023-09-23T23:48:16.435Z,4.50
2023-09-23T23:51:18.918Z,5.15
2023-09-23T23:54:21.631Z,5.20
2023-09-23T23:57:26.204Z,3.85
